Time;durP1;ratioP1;P1;durP2;ratioP2;P2;SDS_P1;SDS_P2;PMS_P1;PMS_P2;Temp;Humidity;BMP_temperature;BMP_pressure;BME280_temperature;BME280_humidity;BME280_pressure;Samples;Min_cycle;Max_cycle;Signal;HPM_P1;HPM_P2
2020/12/14 00:00:14;;;;;;;286.35;59.80;;;4.40;99.90;;;;;;5070178;28;20039;-79
2020/12/14 00:02:40;;;;;;;310.13;61.25;;;4.40;99.90;;;;;;5069891;28;20021;-79
2020/12/14 00:05:07;;;;;;;306.83;62.55;;;4.50;99.90;;;;;;5069986;28;20040;-79
2020/12/14 00:07:33;;;;;;;252.45;58.65;;;4.40;99.90;;;;;;5062509;28;20075;-79
2020/12/14 00:10:01;;;;;;;293.02;62.63;;;4.40;99.90;;;;;;5051318;28;20029;-79
2020/12/14 00:12:26;;;;;;;342.95;63.22;;;4.50;99.90;;;;;;5051391;28;20493;-79
2020/12/14 00:14:52;;;;;;;308.40;63.95;;;4.50;99.90;;;;;;5049881;28;20067;-79
2020/12/14 00:17:19;;;;;;;292.45;61.28;;;4.50;99.90;;;;;;5063195;28;20047;-79
2020/12/14 00:19:45;;;;;;;274.67;59.78;;;4.50;99.90;;;;;;5071308;28;20472;-79
2020/12/14 00:22:11;;;;;;;278.88;61.70;;;4.50;99.90;;;;;;5071381;28;20025;-79
2020/12/14 00:24:36;;;;;;;325.33;62.15;;;4.50;99.90;;;;;;5070943;28;20511;-79
2020/12/14 00:27:02;;;;;;;300.08;61.05;;;4.50;99.90;;;;;;5063752;28;20087;-79
2020/12/14 00:29:27;;;;;;;288.70;60.42;;;4.50;99.90;;;;;;5051201;28;20032;-79
2020/12/14 00:31:54;;;;;;;289.77;62.15;;;4.50;99.90;;;;;;5061633;28;20113;-79
2020/12/14 00:34:21;;;;;;;260.67;57.13;;;4.50;99.90;;;;;;5074694;28;20035;-79
2020/12/14 00:36:46;;;;;;;252.10;59.70;;;4.50;99.90;;;;;;5072284;28;20036;-79
2020/12/14 00:39:12;;;;;;;284.15;58.20;;;4.50;99.90;;;;;;5053561;28;20021;-79
2020/12/14 00:41:37;;;;;;;258.27;56.53;;;4.50;99.90;;;;;;5054746;28;20036;-80
2020/12/14 00:44:03;;;;;;;235.38;57.83;;;4.50;99.90;;;;;;5053160;28;20500;-79
2020/12/14 00:46:29;;;;;;;250.00;55.22;;;4.50;99.90;;;;;;5059865;28;20021;-79
2020/12/14 00:48:55;;;;;;;228.18;54.72;;;4.50;99.90;;;;;;5074647;28;20020;-79
2020/12/14 00:51:28;;;;;;;236.10;56.55;;;4.50;99.90;;;;;;5074428;28;20032;-78
2020/12/14 00:53:55;;;;;;;221.70;55.63;;;4.50;99.90;;;;;;5066921;28;20083;-79
2020/12/14 00:56:20;;;;;;;243.38;56.75;;;4.50;99.90;;;;;;5054468;28;20025;-79
2020/12/14 00:58:46;;;;;;;245.90;55.22;;;4.50;99.90;;;;;;5053211;28;20029;-79
2020/12/14 01:01:13;;;;;;;241.93;58.30;;;4.40;99.90;;;;;;5057262;28;20025;-79
2020/12/14 01:03:39;;;;;;;244.98;52.33;;;4.40;99.90;;;;;;5074218;28;20020;-79
2020/12/14 01:06:05;;;;;;;227.95;56.42;;;4.50;99.90;;;;;;5073915;28;20029;-79
2020/12/14 01:08:31;;;;;;;247.88;56.28;;;4.40;99.90;;;;;;5073014;28;20078;-80
2020/12/14 01:10:57;;;;;;;229.13;55.67;;;4.40;99.90;;;;;;5074210;28;20021;-79
2020/12/14 01:13:22;;;;;;;220.75;53.42;;;4.40;99.90;;;;;;5073394;28;20031;-79
2020/12/14 01:15:48;;;;;;;225.43;56.25;;;4.40;99.90;;;;;;5058883;28;20029;-79
2020/12/14 01:18:14;;;;;;;206.25;54.60;;;4.40;99.90;;;;;;5054074;28;20033;-79
2020/12/14 01:20:43;;;;;;;209.85;53.35;;;4.40;99.90;;;;;;5053884;28;20104;-79
2020/12/14 01:23:09;;;;;;;204.15;52.92;;;4.40;99.90;;;;;;5065241;28;20078;-79
2020/12/14 01:25:35;;;;;;;220.70;54.50;;;4.40;99.90;;;;;;5072307;28;20032;-79
2020/12/14 01:28:01;;;;;;;206.75;57.05;;;4.40;99.90;;;;;;5072601;28;20020;-79
2020/12/14 01:30:27;;;;;;;210.75;53.08;;;4.40;99.90;;;;;;5073828;28;20033;-79
2020/12/14 01:32:53;;;;;;;222.23;59.88;;;4.40;99.90;;;;;;5055362;28;20107;-79
2020/12/14 01:35:19;;;;;;;224.77;57.28;;;4.40;99.90;;;;;;5052199;28;20040;-79
2020/12/14 01:37:45;;;;;;;218.35;56.38;;;4.40;99.90;;;;;;5053658;28;20029;-79
2020/12/14 01:40:10;;;;;;;211.00;54.67;;;4.40;99.90;;;;;;5053658;28;20033;-79
2020/12/14 01:42:40;;;;;;;211.90;55.85;;;4.40;99.90;;;;;;5063112;28;20032;-79
2020/12/14 01:45:06;;;;;;;214.60;54.58;;;4.50;99.90;;;;;;5072061;28;20040;-79
2020/12/14 01:47:42;;;;;;;218.10;56.13;;;4.40;99.90;;;;;;5072894;28;20016;-79
2020/12/14 01:50:11;;;;;;;204.18;54.25;;;4.50;99.90;;;;;;5073389;28;20031;-80
2020/12/14 01:52:39;;;;;;;185.18;52.08;;;4.40;99.90;;;;;;5062958;28;20025;-79
2020/12/14 01:55:07;;;;;;;196.68;51.92;;;4.50;99.90;;;;;;5053202;28;20057;-79
2020/12/14 01:57:32;;;;;;;211.15;56.75;;;4.40;99.90;;;;;;5053214;28;20077;-79
2020/12/14 01:59:58;;;;;;;202.27;56.10;;;4.50;99.90;;;;;;5052042;28;20024;-79
2020/12/14 02:02:25;;;;;;;175.65;53.28;;;4.50;99.90;;;;;;5064553;28;20021;-79
2020/12/14 02:04:51;;;;;;;199.05;55.72;;;4.50;99.90;;;;;;5072835;28;20056;-79
2020/12/14 02:07:16;;;;;;;191.63;52.38;;;4.40;99.90;;;;;;5073049;28;20488;-79
2020/12/14 02:09:42;;;;;;;188.57;52.50;;;4.40;99.90;;;;;;5071841;28;20124;-79
2020/12/14 02:12:08;;;;;;;181.05;54.63;;;4.40;99.90;;;;;;5064592;28;20020;-79
2020/12/14 02:14:36;;;;;;;176.02;53.08;;;4.40;99.90;;;;;;5051599;28;20495;-79
2020/12/14 02:17:03;;;;;;;162.95;52.42;;;4.50;99.90;;;;;;5051501;28;20163;-79
2020/12/14 02:19:29;;;;;;;184.48;53.33;;;4.50;99.90;;;;;;5051595;28;20032;-79
2020/12/14 02:21:57;;;;;;;167.88;50.30;;;4.50;99.90;;;;;;5055645;28;20388;-79
2020/12/14 02:24:23;;;;;;;172.13;51.80;;;4.50;99.90;;;;;;5072464;28;20020;-79
2020/12/14 02:26:49;;;;;;;167.63;49.67;;;4.50;99.90;;;;;;5072665;28;20112;-79
2020/12/14 02:29:18;;;;;;;156.43;52.03;;;4.50;99.90;;;;;;5072730;28;20107;-79
2020/12/14 02:31:45;;;;;;;169.93;50.97;;;4.50;99.90;;;;;;5065005;28;20156;-79
2020/12/14 02:34:10;;;;;;;164.95;50.17;;;4.40;99.90;;;;;;5051158;28;20029;-79
2020/12/14 02:36:37;;;;;;;152.68;49.80;;;4.50;99.90;;;;;;5053411;28;20056;-79
2020/12/14 02:39:04;;;;;;;167.68;49.97;;;4.50;99.90;;;;;;5052853;28;20115;-79
2020/12/14 02:41:30;;;;;;;189.13;52.53;;;4.50;99.90;;;;;;5054767;28;20067;-79
2020/12/14 02:43:55;;;;;;;162.02;51.30;;;4.40;99.90;;;;;;5070819;28;20439;-79
2020/12/14 02:46:21;;;;;;;165.02;51.30;;;4.50;99.90;;;;;;5072059;28;20035;-79
2020/12/14 02:48:47;;;;;;;176.35;50.90;;;4.50;99.90;;;;;;5072256;28;20021;-79
2020/12/14 02:51:17;;;;;;;166.90;50.22;;;4.50;99.90;;;;;;5070912;28;20017;-79
2020/12/14 02:53:43;;;;;;;156.93;48.72;;;4.50;99.90;;;;;;5052643;28;20021;-79
2020/12/14 02:56:08;;;;;;;165.05;50.85;;;4.50;99.90;;;;;;5052161;28;20040;-79
2020/12/14 02:58:34;;;;;;;142.05;47.70;;;4.50;99.90;;;;;;5050980;28;20025;-79
2020/12/14 03:01:00;;;;;;;152.75;48.13;;;4.50;99.90;;;;;;5051935;28;20035;-79
2020/12/14 03:03:25;;;;;;;140.63;47.88;;;4.50;99.90;;;;;;5070879;28;20159;-79
2020/12/14 03:05:51;;;;;;;146.77;47.90;;;4.60;99.90;;;;;;5071568;28;20104;-79
2020/12/14 03:08:16;;;;;;;130.57;46.78;;;4.60;99.90;;;;;;5070814;28;20025;-80
2020/12/14 03:10:42;;;;;;;138.32;46.42;;;4.50;99.90;;;;;;5070692;28;20074;-79
2020/12/14 03:13:07;;;;;;;130.23;44.85;;;4.60;99.90;;;;;;5054584;28;20036;-79
2020/12/14 03:15:33;;;;;;;128.48;44.25;;;4.60;99.90;;;;;;5050331;28;20120;-79
2020/12/14 03:17:58;;;;;;;131.13;44.25;;;4.60;99.90;;;;;;5051871;28;20485;-79
2020/12/14 03:20:24;;;;;;;116.35;42.20;;;4.60;99.90;;;;;;5051794;28;20060;-79
2020/12/14 03:22:50;;;;;;;130.50;43.08;;;4.60;99.90;;;;;;5061390;28;20032;-79
2020/12/14 03:25:15;;;;;;;111.60;42.55;;;4.70;99.90;;;;;;5070540;28;20441;-79
2020/12/14 03:27:41;;;;;;;118.88;42.78;;;4.70;99.90;;;;;;5070518;28;20090;-79
2020/12/14 03:30:06;;;;;;;112.28;41.38;;;4.70;99.90;;;;;;5070546;28;20035;-79
2020/12/14 03:32:32;;;;;;;117.68;41.05;;;4.70;99.90;;;;;;5056333;28;20029;-79
2020/12/14 03:34:57;;;;;;;115.32;42.20;;;4.70;99.90;;;;;;5050108;28;20043;-80
2020/12/14 03:37:27;;;;;;;105.78;40.63;;;4.70;99.90;;;;;;5050353;28;20020;-79
2020/12/14 03:39:52;;;;;;;103.20;42.08;;;4.80;99.90;;;;;;5051671;28;20025;-80
2020/12/14 03:42:18;;;;;;;113.75;41.10;;;4.80;99.90;;;;;;5060533;28;20515;-79
2020/12/14 03:44:43;;;;;;;104.45;40.63;;;4.80;99.90;;;;;;5071340;28;20056;-79
2020/12/14 03:47:10;;;;;;;96.35;39.85;;;4.80;99.90;;;;;;5071239;28;20061;-79
2020/12/14 03:49:36;;;;;;;108.68;40.03;;;4.80;99.90;;;;;;5071540;28;20078;-79
2020/12/14 03:52:01;;;;;;;108.05;38.53;;;4.80;99.90;;;;;;5067466;28;20028;-80
2020/12/14 03:54:27;;;;;;;101.75;40.33;;;4.80;99.90;;;;;;5051391;28;20025;-79
2020/12/14 03:56:56;;;;;;;98.30;38.83;;;4.80;99.90;;;;;;5050188;28;20025;-79
2020/12/14 03:59:22;;;;;;;111.35;40.15;;;4.80;99.90;;;;;;5051610;28;20481;-79
2020/12/14 04:01:47;;;;;;;93.70;38.38;;;4.80;99.90;;;;;;5057605;28;20082;-79
2020/12/14 04:04:13;;;;;;;89.28;37.65;;;4.80;99.90;;;;;;5069856;28;20067;-79
2020/12/14 04:06:38;;;;;;;97.45;38.95;;;4.80;99.90;;;;;;5072785;28;20028;-79
2020/12/14 04:09:04;;;;;;;92.38;38.22;;;4.80;99.90;;;;;;5074136;28;20027;-79
2020/12/14 04:11:29;;;;;;;107.15;41.03;;;4.80;99.90;;;;;;5072828;28;20033;-79
2020/12/14 04:13:55;;;;;;;93.43;39.10;;;4.80;99.90;;;;;;5053909;28;20044;-79
2020/12/14 04:16:20;;;;;;;97.90;37.05;;;4.80;99.90;;;;;;5053888;28;20497;-79
2020/12/14 04:18:46;;;;;;;96.15;38.35;;;4.80;99.90;;;;;;5055205;28;20017;-79
2020/12/14 04:21:12;;;;;;;94.88;37.85;;;4.70;99.90;;;;;;5055127;28;20086;-80
2020/12/14 04:23:37;;;;;;;93.35;38.55;;;4.70;99.90;;;;;;5070680;28;20044;-79
2020/12/14 04:26:04;;;;;;;96.85;37.35;;;4.70;99.90;;;;;;5073499;28;20119;-80
2020/12/14 04:28:30;;;;;;;88.50;36.60;;;4.80;99.90;;;;;;5075089;28;20021;-80
2020/12/14 04:30:55;;;;;;;92.82;38.22;;;4.80;99.90;;;;;;5074104;28;20388;-79
2020/12/14 04:33:21;;;;;;;94.63;36.72;;;4.80;99.90;;;;;;5073695;28;20029;-80
2020/12/14 04:35:47;;;;;;;85.40;35.65;;;4.80;99.90;;;;;;5074546;28;20491;-79
2020/12/14 04:38:12;;;;;;;92.72;39.35;;;4.80;99.90;;;;;;5074843;28;20125;-79
2020/12/14 04:40:38;;;;;;;80.32;35.25;;;4.80;99.90;;;;;;5073544;28;20442;-79
2020/12/14 04:43:07;;;;;;;86.55;34.65;;;4.70;99.90;;;;;;5057906;28;20032;-80
2020/12/14 04:45:33;;;;;;;89.18;35.45;;;4.70;99.90;;;;;;5054469;28;20079;-79
2020/12/14 04:47:59;;;;;;;84.32;36.25;;;4.80;99.90;;;;;;5054539;28;20021;-80
2020/12/14 04:50:26;;;;;;;93.32;36.83;;;4.70;99.90;;;;;;5054638;28;20079;-79
2020/12/14 04:52:52;;;;;;;87.93;35.38;;;4.80;99.90;;;;;;5065343;28;20032;-79
2020/12/14 04:55:21;;;;;;;81.72;36.97;;;4.80;99.90;;;;;;5074301;28;20032;-79
2020/12/14 04:57:47;;;;;;;80.32;33.83;;;4.80;99.90;;;;;;5074450;28;20032;-79
2020/12/14 05:00:14;;;;;;;86.00;36.10;;;4.80;99.90;;;;;;5074490;28;20511;-79
2020/12/14 05:02:39;;;;;;;80.38;34.22;;;4.80;99.90;;;;;;5057966;28;20393;-79
2020/12/14 05:05:09;;;;;;;85.00;34.83;;;4.80;99.90;;;;;;5052635;28;20052;-79
2020/12/14 05:07:43;;;;;;;80.15;34.17;;;4.80;99.90;;;;;;5053019;28;20049;-79
2020/12/14 05:10:09;;;;;;;;;;;4.80;99.90;;;;;;5054697;28;20028;-79
2020/12/14 05:12:45;;;;;;;77.15;33.03;;;4.90;99.90;;;;;;5063874;28;19909;-79
2020/12/14 05:15:20;;;;;;;73.40;32.13;;;4.90;99.90;;;;;;5073948;28;20070;-79
2020/12/14 05:17:47;;;;;;;76.32;33.25;;;4.80;99.90;;;;;;5071231;28;20397;-79
2020/12/14 05:20:14;;;;;;;78.28;33.40;;;4.90;99.90;;;;;;5074107;28;20044;-79
2020/12/14 05:22:55;;;;;;;69.38;30.92;;;4.90;99.90;;;;;;5063481;28;20166;-79
2020/12/14 05:25:21;;;;;;;77.78;34.00;;;4.90;99.90;;;;;;5052378;28;20029;-79
2020/12/14 05:27:46;;;;;;;82.78;33.72;;;5.00;99.90;;;;;;5052610;28;20029;-79
2020/12/14 05:30:13;;;;;;;72.07;30.75;;;5.00;99.90;;;;;;5052637;28;20021;-79
2020/12/14 05:32:39;;;;;;;72.93;32.42;;;5.00;99.90;;;;;;5068386;28;20484;-79
2020/12/14 05:35:11;;;;;;;75.75;30.95;;;5.00;99.90;;;;;;5072390;28;20034;-79
2020/12/14 05:37:38;;;;;;;75.40;33.70;;;5.00;99.90;;;;;;5072281;28;20025;-79
2020/12/14 05:40:13;;;;;;;71.25;33.25;;;5.00;99.90;;;;;;5072522;28;20047;-79
2020/12/14 05:42:42;;;;;;;67.60;31.83;;;5.00;99.90;;;;;;5061652;28;20037;-79
2020/12/14 05:45:12;;;;;;;76.15;32.67;;;4.90;99.90;;;;;;5053442;28;20378;-79
2020/12/14 05:47:41;;;;;;;73.60;32.47;;;4.90;99.90;;;;;;5067834;28;20035;-79
2020/12/14 05:50:09;;;;;;;73.35;32.08;;;4.90;99.90;;;;;;5073483;28;20403;-79
2020/12/14 05:52:40;;;;;;;80.53;33.83;;;4.90;99.90;;;;;;5064985;28;20632;-79
2020/12/14 05:55:09;;;;;;;78.55;34.08;;;4.90;99.90;;;;;;5052060;28;20462;-79
2020/12/14 05:57:35;;;;;;;76.28;33.85;;;4.90;99.90;;;;;;5053341;28;20032;-79
2020/12/14 06:00:08;;;;;;;76.05;31.98;;;4.90;99.90;;;;;;5053318;28;20104;-80
2020/12/14 06:02:34;;;;;;;73.75;31.08;;;4.90;99.90;;;;;;5065455;28;20473;-80
2020/12/14 06:05:03;;;;;;;78.63;32.75;;;4.90;99.90;;;;;;5071490;28;20442;-80
2020/12/14 06:07:30;;;;;;;70.43;31.50;;;4.90;99.90;;;;;;5073042;28;20021;-79
2020/12/14 06:10:03;;;;;;;66.93;29.75;;;5.00;99.90;;;;;;5071728;28;20021;-80
2020/12/14 06:12:30;;;;;;;68.20;29.98;;;4.90;99.90;;;;;;5061151;28;20496;-79
2020/12/14 06:15:10;;;;;;;65.20;30.67;;;5.00;99.90;;;;;;5052736;28;20044;-79
2020/12/14 06:17:37;;;;;;;60.33;29.55;;;5.00;99.90;;;;;;5052705;28;20041;-79
2020/12/14 06:20:20;;;;;;;71.60;29.75;;;5.00;99.90;;;;;;5051690;28;20037;-79
2020/12/14 06:22:51;;;;;;;52.80;27.35;;;5.00;99.90;;;;;;5053270;28;20021;-79
2020/12/14 06:25:17;;;;;;;55.47;28.20;;;5.00;99.90;;;;;;5052548;28;20068;-79
2020/12/14 06:27:43;;;;;;;52.50;25.77;;;5.00;99.90;;;;;;5052566;28;20397;-79
2020/12/14 06:30:35;;;;;;;62.80;26.58;;;5.00;99.90;;;;;;5052532;28;20021;-79
2020/12/14 06:33:08;;;;;;;53.13;26.15;;;5.10;99.90;;;;;;5069863;28;20051;-79
2020/12/14 06:35:47;;;;;;;52.20;24.30;;;5.00;99.90;;;;;;5070996;28;20492;-79
2020/12/14 06:38:33;;;;;;;51.55;22.55;;;5.00;99.90;;;;;;5072617;28;20037;-79
2020/12/14 06:40:59;;;;;;;45.83;23.48;;;5.00;99.90;;;;;;5071099;28;20507;-79
2020/12/14 06:43:33;;;;;;;43.17;22.52;;;5.10;99.90;;;;;;5052853;28;20029;-79
2020/12/14 06:46:01;;;;;;;42.78;23.80;;;5.10;99.90;;;;;;5050765;28;20024;-79
2020/12/14 06:48:47;;;;;;;46.75;22.13;;;5.10;99.90;;;;;;5051183;28;20017;-79
2020/12/14 06:51:14;;;;;;;46.97;23.45;;;5.10;99.90;;;;;;5052547;28;20071;-79
2020/12/14 06:53:40;;;;;;;50.70;23.35;;;5.20;99.90;;;;;;5069177;28;20041;-79
2020/12/14 06:56:06;;;;;;;45.63;21.67;;;5.20;99.90;;;;;;5072096;28;20443;-79
2020/12/14 06:58:38;;;;;;;44.95;22.95;;;5.20;99.90;;;;;;5072126;28;20027;-80
2020/12/14 07:01:33;;;;;;;39.25;20.73;;;5.20;99.90;;;;;;5070356;28;20107;-80
2020/12/14 07:04:26;;;;;;;39.50;21.52;;;5.20;99.90;;;;;;5051871;28;20493;-80
2020/12/14 07:06:51;;;;;;;46.10;21.40;;;5.20;99.90;;;;;;5051727;28;20033;-79
2020/12/14 07:09:28;;;;;;;43.05;21.45;;;5.20;99.90;;;;;;5050792;28;20090;-80
2020/12/14 07:12:15;;;;;;;42.55;21.38;;;5.20;99.90;;;;;;5057345;28;20017;-80
2020/12/14 07:14:45;;;;;;;43.42;21.45;;;5.20;99.90;;;;;;5070290;28;20020;-80
2020/12/14 07:17:22;;;;;;;44.55;20.23;;;5.20;99.90;;;;;;5059445;28;20033;-80
2020/12/14 07:19:49;;;;;;;45.53;21.00;;;5.20;99.90;;;;;;5051860;28;20032;-79
2020/12/14 07:22:20;;;;;;;43.47;20.42;;;5.20;99.90;;;;;;5057300;28;20513;-79
2020/12/14 07:25:06;;;;;;;39.63;21.05;;;5.20;99.90;;;;;;5070423;28;20036;-79
2020/12/14 07:27:33;;;;;;;42.72;22.35;;;5.20;99.90;;;;;;5071407;28;20382;-79
2020/12/14 07:30:10;;;;;;;37.50;19.65;;;5.20;99.90;;;;;;5070596;28;20538;-79
2020/12/14 07:32:36;;;;;;;40.00;18.88;;;5.30;99.90;;;;;;5057366;28;20083;-79
2020/12/14 07:35:06;;;;;;;38.10;19.58;;;5.30;99.90;;;;;;5050358;28;20029;-80
2020/12/14 07:37:33;;;;;;;40.75;19.58;;;5.30;99.90;;;;;;5050422;28;20497;-79
2020/12/14 07:39:58;;;;;;;37.65;20.83;;;5.40;99.90;;;;;;5050939;28;20036;-80
2020/12/14 07:42:28;;;;;;;38.67;19.73;;;5.30;99.90;;;;;;5061150;28;20037;-79
2020/12/14 07:45:14;;;;;;;37.60;19.52;;;5.30;99.90;;;;;;5070360;28;20020;-80
2020/12/14 07:47:42;;;;;;;41.25;20.10;;;5.30;99.90;;;;;;5056283;28;20021;-82
2020/12/14 07:50:14;;;;;;;35.80;18.40;;;5.30;99.90;;;;;;5060028;28;20028;-80
2020/12/14 07:52:41;;;;;;;37.03;18.90;;;5.30;99.90;;;;;;5070373;28;20481;-80
2020/12/14 07:55:11;;;;;;;34.75;18.70;;;5.30;99.90;;;;;;5071430;28;20033;-80
2020/12/14 07:57:41;;;;;;;36.30;18.95;;;5.30;99.90;;;;;;5070278;28;20119;-80
2020/12/14 08:00:24;;;;;;;40.13;20.33;;;5.40;99.90;;;;;;5064184;28;20021;-80
2020/12/14 08:02:50;;;;;;;35.67;18.13;;;5.30;99.90;;;;;;5052570;28;20116;-80
2020/12/14 08:05:18;;;;;;;34.25;18.45;;;5.30;99.90;;;;;;5049527;28;20040;-80
2020/12/14 08:07:45;;;;;;;36.78;19.30;;;5.40;99.90;;;;;;5051195;28;20128;-79
2020/12/14 08:10:11;;;;;;;32.45;17.10;;;5.40;99.90;;;;;;5050996;28;20029;-80
2020/12/14 08:12:40;;;;;;;36.10;18.23;;;5.40;99.90;;;;;;5049959;28;20025;-79
2020/12/14 08:15:12;;;;;;;31.38;17.25;;;5.40;99.90;;;;;;5049816;28;20647;-79
2020/12/14 08:17:39;;;;;;;31.27;17.73;;;5.40;99.90;;;;;;5064992;28;20029;-79
2020/12/14 08:20:06;;;;;;;30.50;16.65;;;5.40;99.90;;;;;;5071261;28;20055;-80
2020/12/14 08:22:33;;;;;;;36.03;17.52;;;5.40;99.90;;;;;;5069921;28;20024;-80
2020/12/14 08:24:59;;;;;;;33.30;17.17;;;5.40;99.90;;;;;;5069620;28;20162;-79
2020/12/14 08:27:47;;;;;;;30.35;16.73;;;5.50;99.90;;;;;;5060897;28;20029;-80
2020/12/14 08:30:15;;;;;;;29.73;15.82;;;5.50;99.90;;;;;;5049882;28;20024;-80
2020/12/14 08:32:40;;;;;;;28.70;16.20;;;5.50;99.90;;;;;;5049755;28;20025;-79
2020/12/14 08:35:23;;;;;;;38.40;16.98;;;5.50;99.90;;;;;;5050978;28;20044;-79
2020/12/14 08:37:50;;;;;;;36.58;18.50;;;5.50;99.90;;;;;;5060319;28;20027;-79
2020/12/14 08:40:15;;;;;;;32.05;17.58;;;5.50;99.90;;;;;;5070912;28;20033;-79
2020/12/14 08:42:41;;;;;;;28.58;15.90;;;5.60;99.90;;;;;;5069857;28;20035;-79
2020/12/14 08:45:12;;;;;;;30.65;15.98;;;5.60;99.90;;;;;;5070730;28;20029;-80
2020/12/14 08:47:41;;;;;;;34.25;16.30;;;5.50;99.90;;;;;;5054870;28;20060;-79
2020/12/14 08:50:10;;;;;;;29.70;15.90;;;5.60;99.90;;;;;;5049649;28;20481;-79
2020/12/14 08:52:36;;;;;;;29.52;15.55;;;5.60;99.90;;;;;;5052035;28;20393;-79
2020/12/14 08:55:02;;;;;;;27.55;15.73;;;5.60;99.90;;;;;;5053092;28;20124;-80
2020/12/14 08:57:30;;;;;;;25.65;15.73;;;5.60;99.90;;;;;;5064156;28;20024;-81
2020/12/14 09:00:10;;;;;;;25.88;15.32;;;5.60;99.90;;;;;;5074361;28;20096;-80
2020/12/14 09:02:36;;;;;;;26.58;14.93;;;5.60;99.90;;;;;;5072720;28;20554;-79
2020/12/14 09:05:19;;;;;;;31.85;15.77;;;5.60;99.90;;;;;;5073794;28;20025;-79
2020/12/14 09:07:46;;;;;;;28.13;14.15;;;5.60;99.90;;;;;;5059850;28;20060;-80
2020/12/14 09:10:16;;;;;;;32.10;16.08;;;5.60;99.90;;;;;;5053402;28;20037;-81
2020/12/14 09:12:41;;;;;;;25.40;15.30;;;5.60;99.90;;;;;;5063835;28;20013;-81
2020/12/14 09:15:07;;;;;;;29.92;14.70;;;5.60;99.90;;;;;;5053862;28;20058;-80
2020/12/14 09:17:33;;;;;;;25.52;14.38;;;5.60;99.90;;;;;;5065107;28;20078;-79
2020/12/14 09:20:00;;;;;;;31.95;14.10;;;5.60;99.90;;;;;;5073032;28;20439;-81
2020/12/14 09:22:26;;;;;;;25.85;14.15;;;5.60;99.90;;;;;;5072865;28;20025;-81
2020/12/14 09:24:51;;;;;;;27.85;14.80;;;5.60;99.90;;;;;;5072331;28;20081;-82
2020/12/14 09:27:18;;;;;;;26.52;14.98;;;5.60;99.90;;;;;;5070137;28;20104;-81
2020/12/14 09:29:45;;;;;;;32.45;15.18;;;5.60;99.90;;;;;;5052833;28;20465;-80
2020/12/14 09:32:12;;;;;;;24.60;15.10;;;5.50;99.90;;;;;;5056464;28;20024;-79
2020/12/14 09:34:38;;;;;;;31.05;13.85;;;5.50;99.90;;;;;;5063712;28;20484;-80
2020/12/14 09:37:05;;;;;;;32.13;15.30;;;5.50;99.90;;;;;;5072375;28;20472;-80
2020/12/14 09:39:32;;;;;;;37.67;14.63;;;5.50;99.90;;;;;;5073699;28;20021;-80
2020/12/14 09:41:59;;;;;;;34.00;14.88;;;5.50;99.90;;;;;;5061531;28;20020;-81
2020/12/14 09:44:26;;;;;;;31.83;16.00;;;5.50;99.90;;;;;;5052089;28;20075;-81
2020/12/14 09:46:53;;;;;;;30.77;15.55;;;5.50;99.90;;;;;;5052164;28;20192;-79
2020/12/14 09:49:19;;;;;;;27.27;14.68;;;5.50;99.90;;;;;;5052352;28;20036;-80
2020/12/14 09:51:45;;;;;;;46.80;15.48;;;5.50;99.90;;;;;;5053253;28;20071;-78
2020/12/14 09:54:11;;;;;;;38.13;16.40;;;5.50;99.90;;;;;;5052472;28;20067;-79
2020/12/14 09:56:36;;;;;;;29.67;14.85;;;5.50;99.90;;;;;;5060114;28;20068;-78
2020/12/14 09:59:03;;;;;;;26.90;14.70;;;5.40;99.90;;;;;;5059968;28;20388;-79
2020/12/14 10:01:29;;;;;;;29.95;14.88;;;5.50;99.90;;;;;;5083236;28;20047;-79
2020/12/14 10:03:56;;;;;;;31.27;16.52;;;5.50;99.90;;;;;;5078492;28;20440;-80
2020/12/14 10:06:22;;;;;;;43.55;16.27;;;5.50;99.90;;;;;;5071548;28;20103;-79
2020/12/14 10:08:47;;;;;;;27.83;15.52;;;5.50;99.90;;;;;;5071663;28;20111;-79
2020/12/14 10:11:13;;;;;;;27.80;14.55;;;5.50;99.90;;;;;;5068637;28;20032;-79
2020/12/14 10:13:39;;;;;;;28.73;14.95;;;5.60;99.90;;;;;;5068940;28;20020;-80
2020/12/14 10:16:05;;;;;;;29.63;15.65;;;5.60;99.90;;;;;;5052138;28;20036;-79
2020/12/14 10:18:31;;;;;;;40.35;16.40;;;5.70;99.90;;;;;;5064003;28;20078;-79
2020/12/14 10:20:58;;;;;;;27.73;14.63;;;5.70;99.90;;;;;;5064136;28;20035;-79
2020/12/14 10:23:24;;;;;;;23.65;14.18;;;5.80;99.90;;;;;;5050910;28;20056;-79
2020/12/14 10:25:50;;;;;;;27.73;15.50;;;5.70;99.90;;;;;;5051324;28;20072;-79
2020/12/14 10:28:15;;;;;;;30.00;14.70;;;5.70;99.90;;;;;;5051502;28;20033;-80
2020/12/14 10:30:41;;;;;;;24.90;13.68;;;5.70;99.90;;;;;;5050611;28;20030;-79
2020/12/14 10:33:07;;;;;;;25.75;14.43;;;5.70;99.90;;;;;;5051778;28;20060;-81
2020/12/14 10:35:32;;;;;;;28.13;14.43;;;5.70;99.90;;;;;;5052356;28;20603;-80
2020/12/14 10:37:58;;;;;;;23.90;13.98;;;5.70;99.90;;;;;;5069031;28;20029;-79
2020/12/14 10:40:25;;;;;;;27.38;13.77;;;5.80;99.90;;;;;;5072446;28;20095;-80
2020/12/14 10:42:52;;;;;;;29.05;13.52;;;5.70;99.90;;;;;;5050864;28;20025;-80
2020/12/14 10:45:17;;;;;;;23.70;12.40;;;5.80;99.90;;;;;;5051392;28;20107;-80
2020/12/14 10:47:43;;;;;;;23.42;13.35;;;5.80;99.90;;;;;;5054876;28;20112;-80
2020/12/14 10:50:09;;;;;;;19.52;11.10;;;5.80;99.90;;;;;;5051219;28;20079;-80
2020/12/14 10:52:35;;;;;;;23.48;13.15;;;5.80;99.90;;;;;;5052929;28;20029;-80
2020/12/14 10:55:01;;;;;;;28.45;13.88;;;5.80;99.90;;;;;;5071637;28;20116;-79
2020/12/14 10:57:27;;;;;;;20.80;12.07;;;5.80;99.90;;;;;;5062269;28;20485;-81
2020/12/14 10:59:57;;;;;;;28.63;11.88;;;5.80;99.90;;;;;;5050959;28;20029;-79
2020/12/14 11:02:23;;;;;;;24.83;13.77;;;5.80;99.90;;;;;;5052145;28;20430;-80
2020/12/14 11:04:49;;;;;;;21.77;12.23;;;5.80;99.90;;;;;;5061681;28;20028;-80
2020/12/14 11:07:15;;;;;;;24.58;11.88;;;5.90;99.90;;;;;;5084338;28;20431;-80
2020/12/14 11:09:40;;;;;;;21.08;11.18;;;5.80;99.90;;;;;;5051945;28;20066;-80
2020/12/14 11:12:06;;;;;;;21.92;12.23;;;5.90;99.90;;;;;;5050153;28;20036;-79
2020/12/14 11:14:35;;;;;;;25.48;11.70;;;5.90;99.90;;;;;;5053828;28;20120;-79
2020/12/14 11:17:02;;;;;;;24.08;13.32;;;5.90;99.90;;;;;;5051974;28;20445;-80
2020/12/14 11:19:28;;;;;;;22.90;12.27;;;5.90;99.90;;;;;;5050132;28;20037;-79
2020/12/14 11:21:57;;;;;;;21.52;12.23;;;5.90;99.90;;;;;;5053443;28;20021;-79
2020/12/14 11:24:23;;;;;;;18.17;11.73;;;5.90;99.90;;;;;;5051650;28;20542;-79
2020/12/14 11:26:50;;;;;;;21.58;13.27;;;5.90;99.90;;;;;;5054966;28;20025;-80
2020/12/14 11:29:16;;;;;;;24.58;13.68;;;5.90;99.90;;;;;;5051202;28;20129;-79
2020/12/14 11:31:42;;;;;;;21.60;13.50;;;5.90;99.90;;;;;;5059039;28;20053;-79
2020/12/14 11:34:08;;;;;;;24.83;13.57;;;5.90;99.90;;;;;;5055070;28;20021;-80
2020/12/14 11:36:34;;;;;;;19.70;12.27;;;5.90;99.90;;;;;;5054381;28;20042;-84
2020/12/14 11:39:00;;;;;;;20.15;12.13;;;6.00;99.90;;;;;;5064041;28;20021;-85
2020/12/14 11:41:27;;;;;;;28.83;13.63;;;6.00;99.90;;;;;;5051163;28;20021;-80
2020/12/14 11:43:52;;;;;;;22.15;12.48;;;6.00;99.90;;;;;;5049440;28;20044;-80
2020/12/14 11:46:18;;;;;;;22.67;13.45;;;6.00;99.90;;;;;;5060150;28;20480;-81
2020/12/14 11:48:44;;;;;;;22.38;13.52;;;6.00;99.90;;;;;;5070341;28;20027;-87
2020/12/14 11:51:10;;;;;;;19.55;13.95;;;6.10;99.90;;;;;;5058406;28;20452;-80
2020/12/14 11:53:36;;;;;;;18.65;12.32;;;6.00;99.90;;;;;;5051461;28;20017;-80
2020/12/14 11:56:02;;;;;;;24.13;14.88;;;6.10;99.90;;;;;;5066824;28;20056;-82
2020/12/14 11:58:27;;;;;;;25.02;14.10;;;6.10;99.90;;;;;;5052071;28;20432;-80
2020/12/14 12:00:53;;;;;;;20.55;14.10;;;6.10;99.90;;;;;;5057568;28;20033;-81
2020/12/14 12:03:19;;;;;;;24.05;14.95;;;6.10;99.90;;;;;;5070235;28;20488;-81
2020/12/14 12:05:46;;;;;;;19.70;13.98;;;6.10;99.90;;;;;;5061226;28;20029;-80
2020/12/14 12:08:11;;;;;;;22.65;13.93;;;6.10;99.90;;;;;;5050002;28;20397;-81
2020/12/14 12:10:37;;;;;;;19.88;13.30;;;6.20;99.90;;;;;;5051077;28;20017;-80
2020/12/14 12:13:03;;;;;;;18.40;12.13;;;6.20;99.90;;;;;;5049969;28;20481;-80
2020/12/14 12:15:28;;;;;;;19.25;13.25;;;6.30;99.90;;;;;;5054396;28;20029;-80
2020/12/14 12:17:54;;;;;;;18.23;12.80;;;6.30;99.90;;;;;;5060738;28;20029;-82
2020/12/14 12:20:20;;;;;;;18.92;13.45;;;6.20;99.90;;;;;;5064775;28;20113;-81
2020/12/14 12:22:46;;;;;;;19.10;14.32;;;6.30;99.90;;;;;;5058050;28;20033;-81
2020/12/14 12:25:11;;;;;;;21.55;13.80;;;6.30;99.90;;;;;;5071280;28;20032;-80
2020/12/14 12:27:37;;;;;;;20.30;14.70;;;6.20;99.90;;;;;;5053441;28;20557;-81
2020/12/14 12:30:04;;;;;;;22.63;15.07;;;6.30;99.90;;;;;;5057078;28;20016;-80
2020/12/14 12:32:29;;;;;;;26.33;14.90;;;6.30;99.90;;;;;;5070052;28;20031;-80
2020/12/14 12:34:55;;;;;;;17.15;13.63;;;6.30;99.90;;;;;;5065699;28;20033;-80